Time;durP1;ratioP1;P1;durP2;ratioP2;P2;SDS_P1;SDS_P2;PMS_P1;PMS_P2;Temp;Humidity;BMP_temperature;BMP_pressure;BME280_temperature;BME280_humidity;BME280_pressure;Samples;Min_cycle;Max_cycle;Signal;HPM_P1;HPM_P2
2024/01/13 00:00:34;;;;;;;18.33;7.55;;;;;;;-3.12;100.00;101545.19;5066443;28;20040;-64
2024/01/13 00:03:00;;;;;;;15.48;6.57;;;;;;;-3.13;100.00;101539.25;5069330;28;20030;-63
2024/01/13 00:05:26;;;;;;;16.75;7.25;;;;;;;-3.09;100.00;101540.84;5068250;28;20029;-63
2024/01/13 00:07:52;;;;;;;20.23;7.07;;;;;;;-3.11;100.00;101536.66;5068946;28;20048;-63
2024/01/13 00:10:17;;;;;;;14.65;6.90;;;;;;;-3.15;100.00;101533.34;5067574;28;20098;-64
2024/01/13 00:12:43;;;;;;;14.98;5.78;;;;;;;-3.19;100.00;101530.88;5067345;28;20028;-63
2024/01/13 00:15:08;;;;;;;14.63;6.15;;;;;;;-3.19;100.00;101533.44;5068294;28;20866;-63
2024/01/13 00:17:34;;;;;;;11.52;4.85;;;;;;;-3.23;100.00;101534.34;5069138;28;20025;-63
2024/01/13 00:19:59;;;;;;;13.40;5.80;;;;;;;-3.23;100.00;101532.66;5072273;28;20028;-63
2024/01/13 00:22:25;;;;;;;11.02;5.07;;;;;;;-3.18;100.00;101525.75;5071216;28;20024;-64
2024/01/13 00:24:50;;;;;;;16.65;4.88;;;;;;;-3.22;100.00;101524.13;5072363;28;20024;-63
2024/01/13 00:27:15;;;;;;;10.57;5.43;;;;;;;-3.24;100.00;101520.78;5071515;28;20021;-64
2024/01/13 00:29:41;;;;;;;12.18;5.90;;;;;;;-3.27;100.00;101522.53;5071844;28;20044;-63
2024/01/13 00:32:06;;;;;;;11.48;4.50;;;;;;;-3.28;100.00;101518.31;5072059;28;20024;-63
2024/01/13 00:34:32;;;;;;;12.38;5.82;;;;;;;-3.27;100.00;101514.91;5071795;28;20044;-63
2024/01/13 00:36:57;;;;;;;15.10;5.72;;;;;;;-3.28;100.00;101511.50;5071375;28;20035;-63
2024/01/13 00:39:22;;;;;;;11.93;5.72;;;;;;;-3.29;100.00;101511.53;5071452;28;20041;-63
2024/01/13 00:41:48;;;;;;;9.50;4.80;;;;;;;-3.29;100.00;101514.09;5071710;28;20039;-64
2024/01/13 00:44:14;;;;;;;16.63;6.38;;;;;;;-3.30;100.00;101510.69;5071867;28;20024;-63
2024/01/13 00:46:39;;;;;;;11.00;5.30;;;;;;;-3.29;100.00;101511.53;5070865;28;20041;-63
2024/01/13 00:49:05;;;;;;;24.52;6.28;;;;;;;-3.29;100.00;101509.00;5070286;28;20028;-63
2024/01/13 00:51:33;;;;;;;11.30;5.80;;;;;;;-3.20;100.00;101501.16;5069343;28;20115;-64
2024/01/13 00:53:58;;;;;;;14.85;7.13;;;;;;;-3.14;100.00;101516.31;5071217;28;20082;-64
2024/01/13 00:56:23;;;;;;;14.27;6.65;;;;;;;-3.18;100.00;101520.66;5071175;28;20032;-64
2024/01/13 00:58:49;;;;;;;9.48;4.63;;;;;;;-3.25;100.00;101519.09;5066309;28;20110;-63
2024/01/13 01:01:15;;;;;;;13.48;6.32;;;;;;;-3.30;100.00;101520.91;5069468;28;20029;-63
2024/01/13 01:03:40;;;;;;;21.48;5.57;;;;;;;-3.34;100.00;101521.84;5070808;28;20032;-64
2024/01/13 01:06:06;;;;;;;12.15;4.72;;;;;;;-3.35;100.00;101532.91;5071114;28;20389;-63
2024/01/13 01:08:31;;;;;;;17.75;5.82;;;;;;;-3.33;100.00;101533.72;5068561;28;20029;-64
2024/01/13 01:10:57;;;;;;;17.42;5.90;;;;;;;-3.31;100.00;101533.69;5071378;28;20111;-64
2024/01/13 01:13:22;;;;;;;15.98;6.00;;;;;;;-3.32;100.00;101525.22;5071187;28;20028;-63
2024/01/13 01:15:48;;;;;;;12.82;4.97;;;;;;;-3.36;100.00;101536.34;5070165;28;20040;-63
2024/01/13 01:18:13;;;;;;;14.23;6.07;;;;;;;-3.41;100.00;101528.78;5071040;28;20028;-63
2024/01/13 01:20:39;;;;;;;16.10;5.63;;;;;;;-3.40;100.00;101527.06;5069849;28;20033;-63
2024/01/13 01:23:05;;;;;;;12.27;4.90;;;;;;;-3.36;100.00;101519.34;5071396;28;20028;-63
2024/01/13 01:25:30;;;;;;;12.10;4.63;;;;;;;-3.35;100.00;101517.63;5069382;28;20131;-64
2024/01/13 01:27:55;;;;;;;15.57;5.18;;;;;;;-3.38;100.00;101522.78;5070723;28;20533;-63
2024/01/13 01:30:21;;;;;;;8.75;4.32;;;;;;;-3.41;100.00;101527.94;5069435;28;20416;-63
2024/01/13 01:32:49;;;;;;;22.13;5.68;;;;;;;-3.45;100.00;101526.31;5070708;28;20035;-63
2024/01/13 01:35:14;;;;;;;16.67;6.07;;;;;;;-3.46;100.00;101529.72;5070791;28;20048;-63
2024/01/13 01:37:40;;;;;;;11.63;4.78;;;;;;;-3.49;100.00;101529.78;5070605;28;20353;-63
2024/01/13 01:40:07;;;;;;;14.48;5.15;;;;;;;-3.51;100.00;101531.53;5070585;28;20039;-64
2024/01/13 01:42:33;;;;;;;15.32;6.15;;;;;;;-3.52;100.00;101525.59;5070180;28;20440;-64
2024/01/13 01:44:58;;;;;;;12.25;5.38;;;;;;;-3.54;100.00;101527.34;5070058;28;20029;-63
2024/01/13 01:47:25;;;;;;;17.33;5.75;;;;;;;-3.50;100.00;101523.84;5070763;28;20470;-64
2024/01/13 01:49:51;;;;;;;11.18;5.05;;;;;;;-3.49;100.00;101524.69;5064416;28;20040;-63
2024/01/13 01:52:17;;;;;;;12.23;5.20;;;;;;;-3.51;100.00;101527.28;5070004;28;20042;-63
2024/01/13 01:54:43;;;;;;;12.63;5.80;;;;;;;-3.52;100.00;101527.31;5069629;28;20100;-63
2024/01/13 01:57:13;;;;;;;14.57;5.75;;;;;;;-3.49;100.00;101539.97;5069668;28;20491;-64
2024/01/13 01:59:39;;;;;;;14.52;4.68;;;;;;;-3.49;100.00;101529.78;5068376;28;20043;-63
2024/01/13 02:02:06;;;;;;;13.77;5.05;;;;;;;-3.54;100.00;101531.59;5067284;28;20048;-63
2024/01/13 02:04:31;;;;;;;11.27;5.72;;;;;;;-3.57;100.00;101522.28;5069402;28;20028;-63
2024/01/13 02:06:57;;;;;;;14.05;4.70;;;;;;;-3.61;100.00;101524.94;5070795;28;20028;-64
2024/01/13 02:09:23;;;;;;;17.55;5.70;;;;;;;-3.63;100.00;101519.03;5070211;28;20493;-63
2024/01/13 02:11:49;;;;;;;12.40;5.05;;;;;;;-3.67;100.00;101521.63;5067571;28;20478;-63
2024/01/13 02:14:14;;;;;;;15.23;5.03;;;;;;;-3.67;100.00;101523.31;5069907;28;20035;-63
2024/01/13 02:16:40;;;;;;;11.38;4.53;;;;;;;-3.71;100.00;101503.88;5068021;28;20046;-64
2024/01/13 02:19:05;;;;;;;9.68;4.38;;;;;;;-3.70;100.00;101515.75;5069751;28;20032;-63
2024/01/13 02:21:31;;;;;;;16.38;4.85;;;;;;;-3.73;100.00;101508.16;5068637;28;20539;-62
2024/01/13 02:23:56;;;;;;;9.35;4.30;;;;;;;-3.74;100.00;101514.97;5069928;28;20028;-63
2024/01/13 02:26:21;;;;;;;10.82;4.82;;;;;;;-3.61;100.00;101513.03;5069726;28;20481;-64
2024/01/13 02:28:47;;;;;;;9.90;4.82;;;;;;;-3.55;100.00;101501.88;5068808;28;20369;-64
2024/01/13 02:31:14;;;;;;;15.45;5.88;;;;;;;-3.56;100.00;101505.31;5069539;28;20394;-65
2024/01/13 02:33:39;;;;;;;12.65;4.38;;;;;;;-3.64;100.00;101507.16;5067837;28;20047;-65
2024/01/13 02:36:05;;;;;;;9.05;4.43;;;;;;;-3.59;100.00;101507.91;5068261;28;20028;-65
2024/01/13 02:38:31;;;;;;;8.05;3.70;;;;;;;-3.64;100.00;101504.59;5068110;28;20032;-64
2024/01/13 02:40:56;;;;;;;11.93;4.70;;;;;;;-3.67;100.00;101505.50;5068721;28;20071;-65
2024/01/13 02:43:22;;;;;;;11.68;4.55;;;;;;;-3.69;100.00;101502.97;5069793;28;20387;-64
2024/01/13 02:45:47;;;;;;;10.73;4.88;;;;;;;-3.77;100.00;101504.81;5068601;28;20028;-64
2024/01/13 02:48:20;;;;;;;15.40;5.68;;;;;;;-3.77;100.00;101497.19;5069453;28;20381;-64
2024/01/13 02:50:52;;;;;;;9.93;4.63;;;;;;;-3.75;100.00;101489.53;5068916;28;20028;-63
2024/01/13 02:53:17;;;;;;;10.35;4.45;;;;;;;-3.78;100.00;101498.06;5065907;28;20668;-64
2024/01/13 02:55:43;;;;;;;14.48;5.10;;;;;;;-3.80;100.00;101497.28;5068282;28;20032;-64
2024/01/13 02:58:08;;;;;;;10.43;4.50;;;;;;;-3.82;100.00;101491.38;5069181;28;20032;-64
2024/01/13 03:00:34;;;;;;;10.55;3.90;;;;;;;-3.85;100.00;101496.53;5068855;28;20029;-64
2024/01/13 03:02:59;;;;;;;8.88;3.92;;;;;;;-3.87;100.00;101493.16;5068686;28;20099;-64
2024/01/13 03:05:24;;;;;;;10.75;4.13;;;;;;;-3.89;100.00;101492.34;5069082;28;20119;-64
2024/01/13 03:07:50;;;;;;;8.43;4.00;;;;;;;-3.91;100.00;101486.44;5069552;28;20470;-64
2024/01/13 03:10:15;;;;;;;11.85;3.78;;;;;;;-3.91;100.00;101481.34;5068647;28;20052;-64
2024/01/13 03:12:41;;;;;;;16.30;5.93;;;;;;;-3.88;100.00;101481.28;5068678;28;20539;-64
2024/01/13 03:15:07;;;;;;;12.18;4.00;;;;;;;-3.89;100.00;101473.69;5067853;28;20035;-65
2024/01/13 03:17:32;;;;;;;8.65;4.05;;;;;;;-3.95;100.00;101474.63;5068234;28;20119;-65
2024/01/13 03:19:58;;;;;;;11.23;4.70;;;;;;;-3.99;100.00;101473.00;5068998;28;20043;-64
2024/01/13 03:22:23;;;;;;;11.63;4.50;;;;;;;-3.98;100.00;101474.69;5068867;28;20028;-64
2024/01/13 03:24:49;;;;;;;9.20;4.00;;;;;;;-3.97;100.00;101467.88;5068736;28;20032;-64
2024/01/13 03:27:14;;;;;;;15.27;5.15;;;;;;;-3.92;100.00;101458.47;5069120;28;20090;-64
2024/01/13 03:29:40;;;;;;;11.20;5.00;;;;;;;-3.89;100.00;101460.97;5068613;28;20047;-64
2024/01/13 03:32:05;;;;;;;10.43;3.40;;;;;;;-3.91;100.00;101445.72;5068777;28;20031;-63
2024/01/13 03:34:31;;;;;;;12.95;3.70;;;;;;;-3.91;100.00;101450.78;5068024;28;20116;-64
2024/01/13 03:36:56;;;;;;;9.15;3.22;;;;;;;-3.90;100.00;101452.47;5069258;28;20461;-64
2024/01/13 03:39:22;;;;;;;8.90;3.95;;;;;;;-3.89;100.00;101449.06;5067844;28;20029;-64
2024/01/13 03:41:49;;;;;;;13.40;4.43;;;;;;;-3.92;100.00;101448.28;5067948;28;20028;-64
2024/01/13 03:44:14;;;;;;;11.38;4.43;;;;;;;-3.92;100.00;101444.03;5068742;28;20033;-64
2024/01/13 03:46:40;;;;;;;11.50;3.78;;;;;;;-3.95;100.00;101439.00;5068492;28;20036;-64
2024/01/13 03:49:05;;;;;;;8.00;4.13;;;;;;;-3.97;100.00;101440.72;5067041;28;20040;-63
2024/01/13 03:51:31;;;;;;;15.50;3.92;;;;;;;-3.95;100.00;101433.91;5069021;28;20440;-63
2024/01/13 03:53:56;;;;;;;13.07;4.45;;;;;;;-3.98;100.00;101433.97;5072572;28;20047;-64
2024/01/13 03:56:21;;;;;;;9.98;3.65;;;;;;;-3.97;100.00;101430.53;5072775;28;20436;-64
2024/01/13 03:58:47;;;;;;;9.02;3.50;;;;;;;-3.90;100.00;101427.00;5071855;28;20029;-64
2024/01/13 04:01:12;;;;;;;8.85;2.25;;;;;;;-3.67;100.00;101429.94;5072701;28;20037;-64
2024/01/13 04:03:38;;;;;;;10.45;4.00;;;;;;;-3.41;100.00;101426.84;5070376;28;20410;-64
2024/01/13 04:06:04;;;;;;;12.18;4.22;;;;;;;-3.39;100.00;101424.28;5068945;28;20039;-65
2024/01/13 04:08:29;;;;;;;15.63;4.68;;;;;;;-3.53;100.00;101427.09;5069366;28;20044;-64
2024/01/13 04:10:55;;;;;;;7.68;3.58;;;;;;;-3.66;100.00;101428.22;5072441;28;20028;-64
2024/01/13 04:13:20;;;;;;;9.15;3.75;;;;;;;-3.71;100.00;101430.84;5072095;28;20141;-64
2024/01/13 04:15:45;;;;;;;8.70;4.20;;;;;;;-3.75;100.00;101429.25;5071423;28;20033;-64
2024/01/13 04:18:11;;;;;;;5.93;3.20;;;;;;;-3.83;100.00;101425.19;5070413;28;20048;-64
2024/01/13 04:20:36;;;;;;;8.75;3.95;;;;;;;-3.88;100.00;101434.63;5071189;28;20044;-64
2024/01/13 04:23:02;;;;;;;10.65;3.35;;;;;;;-3.92;100.00;101438.09;5071085;28;20031;-64
2024/01/13 04:25:27;;;;;;;8.75;3.50;;;;;;;-3.97;100.00;101435.63;5069152;28;20112;-64
2024/01/13 04:27:54;;;;;;;12.02;3.35;;;;;;;-4.01;100.00;101432.31;5072508;28;20081;-64
2024/01/13 04:30:20;;;;;;;8.30;2.80;;;;;;;-4.04;100.00;101434.91;5072421;28;20049;-64
2024/01/13 04:32:46;;;;;;;10.63;3.17;;;;;;;-4.05;100.00;101438.31;5071349;28;20032;-64
2024/01/13 04:35:12;;;;;;;10.15;4.20;;;;;;;-4.05;100.00;101424.75;5070800;28;20119;-64
2024/01/13 04:37:38;;;;;;;7.03;2.92;;;;;;;-4.02;100.00;101438.25;5071559;28;20163;-64
2024/01/13 04:40:04;;;;;;;8.20;2.70;;;;;;;-4.03;100.00;101440.84;5071907;28;20381;-64
2024/01/13 04:42:31;;;;;;;9.52;3.25;;;;;;;-4.05;100.00;101447.66;5069999;28;20036;-64
2024/01/13 04:44:57;;;;;;;7.47;2.95;;;;;;;-4.06;100.00;101439.19;5071722;28;20055;-64
2024/01/13 04:47:24;;;;;;;14.73;4.32;;;;;;;-4.07;100.00;101439.22;5070099;28;20032;-64
2024/01/13 04:49:49;;;;;;;10.15;4.10;;;;;;;-4.07;100.00;101434.97;5068005;28;20035;-64
2024/01/13 04:52:15;;;;;;;8.95;4.68;;;;;;;-4.06;100.00;101430.72;5071321;28;20040;-64
2024/01/13 04:54:40;;;;;;;8.82;4.22;;;;;;;-4.06;100.00;101441.72;5070668;28;20047;-64
2024/01/13 04:57:06;;;;;;;9.48;4.22;;;;;;;-4.09;100.00;101436.69;5071661;28;20146;-64
2024/01/13 04:59:31;;;;;;;9.95;3.58;;;;;;;-4.10;100.00;101434.19;5069948;28;20045;-64
2024/01/13 05:01:56;;;;;;;10.07;4.93;;;;;;;-3.99;100.00;101436.53;5071399;28;20032;-65
2024/01/13 05:04:22;;;;;;;15.45;6.18;;;;;;;-3.97;100.00;101430.53;5070087;28;20037;-64
2024/01/13 05:06:47;;;;;;;15.85;4.13;;;;;;;-3.94;100.00;101424.56;5070525;28;20432;-64
2024/01/13 05:09:14;;;;;;;11.85;4.72;;;;;;;-3.98;100.00;101421.22;5070273;28;20041;-65
2024/01/13 05:11:39;;;;;;;11.15;2.90;;;;;;;-4.05;100.00;101412.88;5070095;28;20025;-63
2024/01/13 05:14:05;;;;;;;8.80;3.50;;;;;;;-3.95;100.00;101413.53;5071372;28;20567;-65
2024/01/13 05:16:30;;;;;;;8.43;4.13;;;;;;;-3.92;100.00;101413.47;5070341;28;20058;-65
2024/01/13 05:18:55;;;;;;;9.55;3.45;;;;;;;-3.99;100.00;101411.91;5071572;28;20443;-65
2024/01/13 05:21:21;;;;;;;9.40;3.03;;;;;;;-4.04;100.00;101414.53;5070870;28;20537;-65
2024/01/13 05:23:46;;;;;;;8.43;4.00;;;;;;;-3.31;100.00;101419.84;5070713;28;20381;-65
2024/01/13 05:26:12;;;;;;;13.05;4.40;;;;;;;-2.65;100.00;101413.19;5070947;28;20543;-64
2024/01/13 05:28:37;;;;;;;9.73;4.18;;;;;;;-2.36;97.74;101419.22;5069502;28;20024;-65
2024/01/13 05:31:03;;;;;;;8.75;4.20;;;;;;;-2.23;95.36;101409.53;5070989;28;20035;-65
2024/01/13 05:33:28;;;;;;;11.07;3.58;;;;;;;-2.21;94.16;101407.78;5070523;28;20075;-65
2024/01/13 05:35:54;;;;;;;10.52;4.47;;;;;;;-2.39;94.37;101411.69;5070176;28;20040;-65
2024/01/13 05:38:20;;;;;;;9.85;4.38;;;;;;;-2.53;93.99;101412.91;5070906;28;20025;-65
2024/01/13 05:40:45;;;;;;;7.30;3.47;;;;;;;-2.89;94.98;101407.00;5069644;28;20107;-65
2024/01/13 05:43:11;;;;;;;13.65;3.97;;;;;;;-3.14;97.37;101410.09;5070742;28;20036;-64
2024/01/13 05:45:36;;;;;;;6.35;3.00;;;;;;;-2.50;96.21;101413.66;5070232;28;20474;-64
2024/01/13 05:48:02;;;;;;;11.52;3.72;;;;;;;-2.49;95.06;101420.44;5070772;28;20026;-65
2024/01/13 05:50:27;;;;;;;9.48;4.10;;;;;;;-2.80;94.94;101412.69;5069582;28;20115;-64
2024/01/13 05:52:53;;;;;;;12.82;3.67;;;;;;;-2.69;96.62;101413.28;5070705;28;20055;-64
2024/01/13 05:55:19;;;;;;;7.22;3.00;;;;;;;-2.53;95.37;101418.00;5070014;28;20036;-64
2024/01/13 05:57:44;;;;;;;9.50;3.65;;;;;;;-2.37;93.93;101425.25;5069730;28;20796;-64
2024/01/13 06:00:10;;;;;;;11.50;2.83;;;;;;;-2.65;94.10;101414.03;5069465;28;20028;-64
2024/01/13 06:02:35;;;;;;;8.65;2.72;;;;;;;-2.83;95.59;101415.31;5069641;28;20438;-65
2024/01/13 06:05:01;;;;;;;10.15;3.05;;;;;;;-2.81;95.42;101417.81;5069987;28;20506;-64
2024/01/13 06:07:26;;;;;;;9.93;2.38;;;;;;;-2.56;94.25;101418.06;5068459;28;20566;-65
2024/01/13 06:09:52;;;;;;;10.35;2.92;;;;;;;-2.42;93.74;101424.53;5070591;28;20029;-64
2024/01/13 06:12:17;;;;;;;6.75;2.80;;;;;;;-2.25;91.93;101403.63;5069585;28;20458;-65
2024/01/13 06:14:43;;;;;;;9.77;2.97;;;;;;;-2.15;91.56;101399.97;5067874;28;20028;-64
2024/01/13 06:17:08;;;;;;;11.68;3.75;;;;;;;-1.88;90.26;101393.25;5069869;28;20036;-64
2024/01/13 06:19:34;;;;;;;9.25;3.10;;;;;;;-1.78;89.36;101392.13;5068225;28;20438;-64
2024/01/13 06:21:59;;;;;;;11.60;3.70;;;;;;;-1.72;88.23;101393.66;5069860;28;20528;-65
2024/01/13 06:24:25;;;;;;;14.60;4.13;;;;;;;-1.68;87.71;101390.97;5069018;28;20069;-65
2024/01/13 06:26:50;;;;;;;12.52;3.67;;;;;;;-1.69;88.26;101386.75;5066806;28;20040;-65
2024/01/13 06:29:15;;;;;;;10.38;4.35;;;;;;;-1.77;87.88;101386.13;5068876;28;20090;-64
2024/01/13 06:31:41;;;;;;;12.23;4.25;;;;;;;-1.73;87.72;101387.72;5068908;28;20039;-64
2024/01/13 06:34:06;;;;;;;10.20;4.40;;;;;;;-1.65;87.03;101389.22;5069424;28;20036;-65
2024/01/13 06:36:32;;;;;;;8.38;3.47;;;;;;;-1.67;86.95;101389.25;5069159;28;20115;-64
2024/01/13 06:38:57;;;;;;;11.40;4.20;;;;;;;-1.70;86.99;101392.75;5069893;28;20044;-64
2024/01/13 06:41:23;;;;;;;11.15;4.13;;;;;;;-1.93;87.71;101395.13;5069847;28;20534;-64
2024/01/13 06:43:49;;;;;;;8.45;3.22;;;;;;;-2.08;88.17;101395.53;5069456;28;20020;-64
2024/01/13 06:46:14;;;;;;;8.45;2.05;;;;;;;-2.21;89.54;101394.19;5069258;28;20032;-64
2024/01/13 06:48:40;;;;;;;8.10;2.65;;;;;;;-2.38;90.33;101392.09;5068973;28;20162;-64
2024/01/13 06:51:05;;;;;;;7.18;2.05;;;;;;;-2.53;91.24;101395.88;5068925;28;20040;-65
2024/01/13 06:53:30;;;;;;;7.13;2.58;;;;;;;-2.71;92.32;101386.97;5066375;28;20035;-64
2024/01/13 06:55:56;;;;;;;11.65;4.00;;;;;;;-2.58;92.35;101394.31;5068102;28;20059;-64
2024/01/13 06:58:21;;;;;;;8.30;3.15;;;;;;;-2.42;92.22;101387.94;5069172;28;20473;-64
2024/01/13 07:00:47;;;;;;;9.20;3.22;;;;;;;-2.08;89.67;101386.16;5068656;28;20028;-64
2024/01/13 07:03:12;;;;;;;6.70;2.60;;;;;;;-1.89;88.18;101393.31;5068662;28;20517;-64
2024/01/13 07:05:37;;;;;;;8.32;3.38;;;;;;;-1.90;87.44;101391.66;5068286;28;20082;-64
2024/01/13 07:08:05;;;;;;;9.65;3.70;;;;;;;-1.85;87.09;101394.88;5068756;28;20021;-65
2024/01/13 07:10:30;;;;;;;8.77;3.42;;;;;;;-1.70;86.58;101392.75;5067806;28;20028;-64
2024/01/13 07:12:56;;;;;;;12.52;3.97;;;;;;;-1.62;86.17;101394.25;5069327;28;20043;-65
2024/01/13 07:15:22;;;;;;;10.70;3.03;;;;;;;-1.54;85.91;101389.75;5070516;28;20028;-64
2024/01/13 07:17:47;;;;;;;10.18;3.92;;;;;;;-1.51;86.31;101394.78;5071599;28;20021;-65
2024/01/13 07:20:13;;;;;;;16.50;3.97;;;;;;;-1.53;86.42;101388.88;5069363;28;20028;-65
2024/01/13 07:22:39;;;;;;;6.82;3.30;;;;;;;-1.50;86.45;101383.66;5072764;28;20497;-65
2024/01/13 07:25:05;;;;;;;8.45;3.90;;;;;;;-1.43;85.80;101388.56;5067876;28;20024;-64
2024/01/13 07:27:31;;;;;;;12.02;2.78;;;;;;;-1.39;85.66;101387.53;5068269;28;20024;-64
2024/01/13 07:29:56;;;;;;;9.15;3.75;;;;;;;-1.33;85.09;101377.13;5068801;28;20683;-64
2024/01/13 07:32:22;;;;;;;8.95;3.65;;;;;;;-1.27;84.46;101375.28;5071049;28;20056;-65
2024/01/13 07:34:48;;;;;;;11.75;3.28;;;;;;;-1.26;84.79;101379.50;5066886;28;20415;-64
2024/01/13 07:37:13;;;;;;;9.15;3.25;;;;;;;-1.24;84.32;101376.03;5068962;28;20043;-64
2024/01/13 07:39:39;;;;;;;9.57;3.00;;;;;;;-1.21;84.23;101369.97;5068615;28;20032;-65
2024/01/13 07:42:04;;;;;;;8.05;3.13;;;;;;;-1.10;82.95;101373.03;5070569;28;20027;-65
2024/01/13 07:44:30;;;;;;;8.82;3.00;;;;;;;-1.04;82.76;101367.75;5068358;28;20024;-65
2024/01/13 07:47:00;;;;;;;8.38;3.88;;;;;;;-1.06;83.00;101374.63;5068920;28;20028;-65
2024/01/13 07:49:27;;;;;;;7.82;2.47;;;;;;;-0.98;81.87;101376.94;5066464;28;20107;-64
2024/01/13 07:51:54;;;;;;;6.32;3.13;;;;;;;-1.04;82.89;101378.81;5068959;28;20078;-65
2024/01/13 07:54:20;;;;;;;10.23;3.90;;;;;;;-1.13;83.34;101373.97;5068887;28;20033;-65
2024/01/13 07:56:46;;;;;;;11.95;4.68;;;;;;;-1.25;84.84;101392.25;5068273;28;20032;-65
2024/01/13 07:59:12;;;;;;;20.90;7.38;;;;;;;-1.37;86.07;101385.78;5068728;28;20040;-65
2024/01/13 08:01:38;;;;;;;14.05;7.03;;;;;;;-1.48;86.24;101384.47;5068050;28;20493;-64
2024/01/13 08:04:04;;;;;;;11.68;4.97;;;;;;;-1.46;86.06;101390.38;5068155;28;20025;-64
2024/01/13 08:06:29;;;;;;;9.20;4.60;;;;;;;-1.34;85.11;101395.09;5064550;28;20049;-64
2024/01/13 08:08:56;;;;;;;10.18;3.50;;;;;;;-1.14;85.03;101391.94;5062912;28;20029;-65
2024/01/13 08:11:21;;;;;;;10.60;3.97;;;;;;;-0.88;83.07;101398.75;5068773;28;20101;-65
2024/01/13 08:13:47;;;;;;;11.35;4.03;;;;;;;-0.76;82.56;101404.31;5068384;28;20462;-65
2024/01/13 08:16:15;;;;;;;9.43;3.65;;;;;;;-0.67;82.21;101396.34;5068877;28;20486;-64
2024/01/13 08:18:41;;;;;;;12.18;4.43;;;;;;;-0.62;82.37;101392.81;5068175;28;20070;-64
2024/01/13 08:21:07;;;;;;;9.73;4.35;;;;;;;-0.58;81.96;101402.06;5068724;28;20036;-65
2024/01/13 08:23:33;;;;;;;8.70;3.30;;;;;;;-0.47;81.09;101405.06;5063822;28;20446;-65
2024/01/13 08:25:59;;;;;;;9.75;4.72;;;;;;;-0.37;80.15;101412.41;5063833;28;20196;-64
2024/01/13 08:28:24;;;;;;;10.23;3.60;;;;;;;-0.26;79.78;101413.75;5064377;28;20024;-65
2024/01/13 08:30:50;;;;;;;9.75;3.83;;;;;;;-0.18;79.04;101404.94;5067353;28;20024;-65
2024/01/13 08:33:15;;;;;;;11.95;4.53;;;;;;;-0.13;78.90;101409.91;5067208;28;20123;-64
2024/01/13 08:35:41;;;;;;;12.00;4.95;;;;;;;-0.10;78.68;101420.03;5067529;28;20045;-65
2024/01/13 08:38:07;;;;;;;7.68;4.22;;;;;;;-0.02;78.17;101423.19;5067485;28;20526;-65
2024/01/13 08:40:32;;;;;;;13.95;4.40;;;;;;;0.02;78.11;101424.72;5068311;28;20036;-65
2024/01/13 08:43:00;;;;;;;16.98;6.30;;;;;;;-0.08;80.03;101420.81;5069624;28;20497;-65
2024/01/13 08:45:29;;;;;;;12.07;4.43;;;;;;;-0.08;79.91;101426.78;5069202;28;20041;-65
2024/01/13 08:47:57;;;;;;;14.02;5.00;;;;;;;-0.02;78.80;101424.00;5068918;28;20025;-65
2024/01/13 08:50:23;;;;;;;6.78;3.05;;;;;;;0.18;77.40;101418.16;5071928;28;20117;-65
2024/01/13 08:52:51;;;;;;;11.05;4.10;;;;;;;0.29;77.63;101418.59;5070642;28;20028;-65
2024/01/13 08:55:20;;;;;;;9.73;3.78;;;;;;;0.40;77.40;101419.94;5070919;28;20413;-68
2024/01/13 08:57:46;;;;;;;15.25;4.63;;;;;;;0.50;76.65;101416.97;5068149;28;20113;-65
2024/01/13 09:00:13;;;;;;;8.98;3.75;;;;;;;0.58;75.77;101417.50;5069307;28;20059;-65
2024/01/13 09:02:39;;;;;;;8.38;3.25;;;;;;;0.66;75.97;101417.22;5068946;28;20595;-65
2024/01/13 09:05:05;;;;;;;9.45;3.47;;;;;;;0.67;76.43;101408.63;5066646;28;20413;-66
2024/01/13 09:07:31;;;;;;;7.20;3.40;;;;;;;0.73;75.81;101413.53;5068499;28;20527;-66
2024/01/13 09:09:57;;;;;;;13.20;3.65;;;;;;;0.84;75.06;101410.56;5070567;28;20032;-66
2024/01/13 09:12:22;;;;;;;10.57;3.92;;;;;;;0.88;74.34;101405.25;5071660;28;20481;-63
2024/01/13 09:14:47;;;;;;;7.32;3.50;;;;;;;0.96;74.63;101400.63;5063730;28;20091;-66
2024/01/13 09:17:15;;;;;;;7.50;2.92;;;;;;;1.08;73.96;101404.44;5067839;28;20063;-66
2024/01/13 09:19:41;;;;;;;7.28;2.42;;;;;;;1.17;73.60;101404.09;5068241;28;20058;-66
2024/01/13 09:22:06;;;;;;;7.20;3.83;;;;;;;1.20;73.08;101410.81;5068199;28;20024;-65
2024/01/13 09:24:31;;;;;;;7.82;2.75;;;;;;;1.19;75.07;101404.03;5068348;28;20024;-66
2024/01/13 09:26:57;;;;;;;6.88;1.98;;;;;;;1.16;73.10;101406.72;5067865;28;20142;-67
2024/01/13 09:29:22;;;;;;;7.28;2.70;;;;;;;1.19;73.84;101412.56;5084335;28;20032;-65
2024/01/13 09:31:49;;;;;;;9.70;2.72;;;;;;;1.25;74.32;101406.34;5066200;28;20663;-65
2024/01/13 09:34:15;;;;;;;5.75;1.88;;;;;;;1.29;75.60;101407.91;5069110;28;20052;-65
2024/01/13 09:36:44;;;;;;;7.78;3.03;;;;;;;1.27;74.38;101407.97;5067392;28;20035;-64
2024/01/13 09:39:11;;;;;;;5.68;2.60;;;;;;;1.35;75.79;101412.78;5069964;28;20028;-64
2024/01/13 09:41:40;;;;;;;9.18;2.50;;;;;;;1.38;75.02;101404.13;5070267;28;20032;-65
2024/01/13 09:44:15;;;;;;;13.25;2.72;;;;;;;1.45;75.19;101408.06;5070537;28;20059;-66
2024/01/13 09:46:41;;;;;;;7.68;3.08;;;;;;;1.45;73.93;101402.94;5070046;28;20054;-65
2024/01/13 09:49:12;;;;;;;3.20;1.83;;;;;;;1.59;74.72;101386.06;5067285;28;20024;-65
2024/01/13 09:51:38;;;;;;;7.03;2.58;;;;;;;1.73;72.33;101382.91;5069087;28;20063;-65
2024/01/13 09:54:11;;;;;;;9.02;2.63;;;;;;;1.98;70.00;101391.22;5069526;28;20055;-65
2024/01/13 09:56:45;;;;;;;7.63;2.63;;;;;;;2.02;71.18;101384.19;5068303;28;20553;-68
2024/01/13 09:59:11;;;;;;;6.43;1.83;;;;;;;2.15;69.35;101380.19;5069669;28;20048;-65
2024/01/13 10:01:37;;;;;;;5.80;2.00;;;;;;;2.20;69.26;101382.56;5068799;28;20048;-66
2024/01/13 10:04:04;;;;;;;4.82;1.15;;;;;;;2.30;68.72;101383.81;5069689;28;20032;-66
2024/01/13 10:06:33;;;;;;;5.35;1.33;;;;;;;2.28;71.02;101377.91;5068585;28;20062;-65
2024/01/13 10:08:59;;;;;;;3.30;1.38;;;;;;;2.30;68.78;101378.69;5066733;28;20021;-66
2024/01/13 10:11:25;;;;;;;5.95;1.50;;;;;;;2.44;70.78;101378.84;5066431;28;20059;-65
2024/01/13 10:14:04;;;;;;;6.93;2.08;;;;;;;2.40;69.73;101372.19;5068270;28;20028;-66
2024/01/13 10:16:32;;;;;;;5.68;1.17;;;;;;;2.36;73.12;101372.44;5067957;28;20481;-67
2024/01/13 10:18:58;;;;;;;4.38;1.67;;;;;;;2.48;68.92;101370.09;5065639;28;20037;-66
2024/01/13 10:21:23;;;;;;;6.93;1.27;;;;;;;2.54;70.31;101361.25;5062169;28;20020;-66
2024/01/13 10:23:49;;;;;;;2.95;1.20;;;;;;;2.72;69.16;101354.44;5065285;28;20043;-65
2024/01/13 10:26:15;;;;;;;4.45;1.48;;;;;;;2.87;64.90;101349.38;5069705;28;20029;-65
2024/01/13 10:28:41;;;;;;;6.45;2.20;;;;;;;3.03;67.62;101353.78;5068615;28;20103;-66
2024/01/13 10:31:06;;;;;;;7.68;3.30;;;;;;;3.15;66.34;101342.88;5067604;28;20028;-65
2024/01/13 10:33:32;;;;;;;5.18;2.85;;;;;;;3.17;65.55;101347.06;5067829;28;20398;-65
2024/01/13 10:35:57;;;;;;;8.02;2.42;;;;;;;3.10;67.15;101350.00;5066447;28;20456;-65
2024/01/13 10:38:23;;;;;;;5.55;2.38;;;;;;;3.08;69.06;101334.63;5067006;28;20044;-69
2024/01/13 10:40:49;;;;;;;3.42;1.65;;;;;;;3.04;71.16;101329.69;5067759;28;20025;-65
2024/01/13 10:43:18;;;;;;;6.82;2.05;;;;;;;2.91;71.72;101332.88;5066709;28;20052;-65
2024/01/13 10:45:48;;;;;;;5.35;1.83;;;;;;;2.95;71.66;101321.50;5064295;28;20036;-65
2024/01/13 10:48:24;;;;;;;7.88;2.10;;;;;;;3.22;68.51;101321.06;5069001;28;20029;-65
2024/01/13 10:50:50;;;;;;;8.90;2.50;;;;;;;3.33;70.08;101316.19;5067422;28;20104;-65
2024/01/13 10:53:26;;;;;;;6.53;2.22;;;;;;;3.27;69.50;101308.81;5069258;28;20028;-66
2024/01/13 10:55:53;;;;;;;8.20;2.03;;;;;;;3.22;71.95;101313.34;5062896;28;20033;-65
2024/01/13 10:58:20;;;;;;;7.18;2.03;;;;;;;3.37;66.89;101302.25;5066109;28;20052;-65
2024/01/13 11:00:46;;;;;;;5.60;2.17;;;;;;;3.49;68.61;101290.50;5062352;28;20044;-69
2024/01/13 11:03:15;;;;;;;6.75;1.88;;;;;;;3.48;71.46;101294.81;5066664;28;20132;-65
2024/01/13 11:05:41;;;;;;;7.90;2.83;;;;;;;3.44;72.55;101293.31;5065649;28;20043;-65
2024/01/13 11:08:07;;;;;;;6.63;2.42;;;;;;;3.33;73.09;101287.84;5067344;28;20111;-68
2024/01/13 11:10:37;;;;;;;8.25;2.50;;;;;;;3.15;74.54;101291.38;5065410;28;20390;-67
2024/01/13 11:13:17;;;;;;;5.93;2.60;;;;;;;2.96;75.27;101286.31;5068384;28;20020;-65